sensor_id;sensor_type;location;lat;lon;timestamp;P1;durP1;ratioP1;P2;durP2;ratioP2
79414;SDS011;68864;44.972;19.612;2023-09-18T00:01:12;8.48;;;4.32;;
79414;SDS011;68864;44.972;19.612;2023-09-18T00:03:40;9.60;;;5.05;;
79414;SDS011;68864;44.972;19.612;2023-09-18T00:06:07;10.27;;;5.68;;
79414;SDS011;68864;44.972;19.612;2023-09-18T00:08:36;8.35;;;5.15;;
79414;SDS011;68864;44.972;19.612;2023-09-18T00:11:05;9.77;;;5.53;;
79414;SDS011;68864;44.972;19.612;2023-09-18T00:13:33;10.32;;;4.95;;
79414;SDS011;68864;44.972;19.612;2023-09-18T00:16:00;14.43;;;8.88;;
79414;SDS011;68864;44.972;19.612;2023-09-18T00:18:29;13.43;;;6.00;;
79414;SDS011;68864;44.972;19.612;2023-09-18T00:20:57;11.45;;;4.85;;
79414;SDS011;68864;44.972;19.612;2023-09-18T00:23:24;10.05;;;5.07;;
79414;SDS011;68864;44.972;19.612;2023-09-18T00:25:51;13.02;;;5.13;;
79414;SDS011;68864;44.972;19.612;2023-09-18T00:28:17;14.85;;;5.30;;
79414;SDS011;68864;44.972;19.612;2023-09-18T00:30:47;9.75;;;5.57;;
79414;SDS011;68864;44.972;19.612;2023-09-18T00:33:14;12.48;;;6.10;;
79414;SDS011;68864;44.972;19.612;2023-09-18T00:35:44;9.02;;;5.15;;
79414;SDS011;68864;44.972;19.612;2023-09-18T00:38:13;10.77;;;5.43;;
79414;SDS011;68864;44.972;19.612;2023-09-18T00:40:40;14.63;;;8.80;;
79414;SDS011;68864;44.972;19.612;2023-09-18T00:43:07;11.77;;;7.88;;
79414;SDS011;68864;44.972;19.612;2023-09-18T00:45:35;11.27;;;5.82;;
79414;SDS011;68864;44.972;19.612;2023-09-18T00:48:06;13.70;;;10.50;;
79414;SDS011;68864;44.972;19.612;2023-09-18T00:50:33;13.25;;;5.40;;
79414;SDS011;68864;44.972;19.612;2023-09-18T00:53:00;10.52;;;6.30;;
79414;SDS011;68864;44.972;19.612;2023-09-18T00:55:29;11.63;;;6.28;;
79414;SDS011;68864;44.972;19.612;2023-09-18T00:57:57;12.93;;;6.53;;
79414;SDS011;68864;44.972;19.612;2023-09-18T01:00:24;14.95;;;6.68;;
79414;SDS011;68864;44.972;19.612;2023-09-18T01:05:18;11.75;;;9.10;;
79414;SDS011;68864;44.972;19.612;2023-09-18T01:07:45;11.38;;;6.30;;
79414;SDS011;68864;44.972;19.612;2023-09-18T01:10:12;13.82;;;9.57;;
79414;SDS011;68864;44.972;19.612;2023-09-18T01:12:45;10.85;;;8.45;;
79414;SDS011;68864;44.972;19.612;2023-09-18T01:15:17;8.82;;;5.13;;
79414;SDS011;68864;44.972;19.612;2023-09-18T01:17:48;10.55;;;6.07;;
79414;SDS011;68864;44.972;19.612;2023-09-18T01:20:16;14.88;;;7.63;;
79414;SDS011;68864;44.972;19.612;2023-09-18T01:22:44;9.43;;;6.05;;
79414;SDS011;68864;44.972;19.612;2023-09-18T01:25:11;12.90;;;10.02;;
79414;SDS011;68864;44.972;19.612;2023-09-18T01:27:37;11.10;;;7.47;;
79414;SDS011;68864;44.972;19.612;2023-09-18T01:30:04;12.65;;;6.57;;
79414;SDS011;68864;44.972;19.612;2023-09-18T01:32:32;8.93;;;5.45;;
79414;SDS011;68864;44.972;19.612;2023-09-18T01:35:01;11.05;;;6.45;;
79414;SDS011;68864;44.972;19.612;2023-09-18T01:37:31;11.75;;;5.78;;
79414;SDS011;68864;44.972;19.612;2023-09-18T01:40:01;10.85;;;6.15;;
79414;SDS011;68864;44.972;19.612;2023-09-18T01:42:31;11.57;;;8.30;;
79414;SDS011;68864;44.972;19.612;2023-09-18T01:44:58;10.88;;;7.22;;
79414;SDS011;68864;44.972;19.612;2023-09-18T01:47:25;9.88;;;6.50;;
79414;SDS011;68864;44.972;19.612;2023-09-18T01:49:53;12.75;;;9.23;;
79414;SDS011;68864;44.972;19.612;2023-09-18T01:52:19;9.85;;;5.75;;
79414;SDS011;68864;44.972;19.612;2023-09-18T01:54:46;12.00;;;8.98;;
79414;SDS011;68864;44.972;19.612;2023-09-18T01:57:15;13.27;;;9.70;;
79414;SDS011;68864;44.972;19.612;2023-09-18T01:59:42;12.60;;;10.48;;
79414;SDS011;68864;44.972;19.612;2023-09-18T02:02:10;11.45;;;9.05;;
79414;SDS011;68864;44.972;19.612;2023-09-18T02:07:05;9.70;;;6.53;;
79414;SDS011;68864;44.972;19.612;2023-09-18T02:09:32;15.20;;;6.88;;
79414;SDS011;68864;44.972;19.612;2023-09-18T02:11:59;12.43;;;7.88;;
79414;SDS011;68864;44.972;19.612;2023-09-18T02:14:27;11.40;;;8.90;;
79414;SDS011;68864;44.972;19.612;2023-09-18T02:16:55;12.18;;;6.38;;
79414;SDS011;68864;44.972;19.612;2023-09-18T02:19:22;9.90;;;6.18;;
79414;SDS011;68864;44.972;19.612;2023-09-18T02:21:49;12.10;;;5.97;;
79414;SDS011;68864;44.972;19.612;2023-09-18T02:24:16;13.10;;;10.68;;
79414;SDS011;68864;44.972;19.612;2023-09-18T02:26:42;10.65;;;6.05;;
79414;SDS011;68864;44.972;19.612;2023-09-18T02:29:10;11.40;;;6.38;;
79414;SDS011;68864;44.972;19.612;2023-09-18T02:31:40;11.15;;;6.80;;
79414;SDS011;68864;44.972;19.612;2023-09-18T02:34:07;10.52;;;5.85;;
79414;SDS011;68864;44.972;19.612;2023-09-18T02:36:34;10.02;;;5.47;;
79414;SDS011;68864;44.972;19.612;2023-09-18T02:39:01;12.85;;;9.10;;
79414;SDS011;68864;44.972;19.612;2023-09-18T02:41:28;14.80;;;6.43;;
79414;SDS011;68864;44.972;19.612;2023-09-18T02:46:21;11.38;;;6.40;;
79414;SDS011;68864;44.972;19.612;2023-09-18T02:48:49;10.13;;;6.85;;
79414;SDS011;68864;44.972;19.612;2023-09-18T02:51:16;12.88;;;6.80;;
79414;SDS011;68864;44.972;19.612;2023-09-18T02:53:43;9.95;;;6.00;;
79414;SDS011;68864;44.972;19.612;2023-09-18T02:56:09;10.13;;;6.88;;
79414;SDS011;68864;44.972;19.612;2023-09-18T02:58:36;12.00;;;7.28;;
79414;SDS011;68864;44.972;19.612;2023-09-18T03:01:03;10.10;;;7.45;;
79414;SDS011;68864;44.972;19.612;2023-09-18T03:03:30;11.95;;;9.07;;
79414;SDS011;68864;44.972;19.612;2023-09-18T03:06:02;15.90;;;11.13;;
79414;SDS011;68864;44.972;19.612;2023-09-18T03:08:29;12.35;;;8.32;;
79414;SDS011;68864;44.972;19.612;2023-09-18T03:10:56;14.05;;;7.88;;
79414;SDS011;68864;44.972;19.612;2023-09-18T03:13:26;19.90;;;8.30;;
79414;SDS011;68864;44.972;19.612;2023-09-18T03:15:54;14.00;;;9.00;;
79414;SDS011;68864;44.972;19.612;2023-09-18T03:18:21;16.92;;;8.80;;
79414;SDS011;68864;44.972;19.612;2023-09-18T03:23:16;11.95;;;6.70;;
79414;SDS011;68864;44.972;19.612;2023-09-18T03:25:43;11.70;;;7.65;;
79414;SDS011;68864;44.972;19.612;2023-09-18T03:28:09;12.00;;;7.30;;
79414;SDS011;68864;44.972;19.612;2023-09-18T03:30:36;11.52;;;6.55;;
79414;SDS011;68864;44.972;19.612;2023-09-18T03:33:03;12.77;;;7.28;;
79414;SDS011;68864;44.972;19.612;2023-09-18T03:37:57;12.60;;;7.25;;
79414;SDS011;68864;44.972;19.612;2023-09-18T03:40:25;11.98;;;7.28;;
79414;SDS011;68864;44.972;19.612;2023-09-18T03:42:52;15.10;;;12.05;;
79414;SDS011;68864;44.972;19.612;2023-09-18T03:45:19;14.40;;;9.80;;
79414;SDS011;68864;44.972;19.612;2023-09-18T03:50:15;11.65;;;8.32;;
79414;SDS011;68864;44.972;19.612;2023-09-18T03:55:08;13.75;;;8.65;;
79414;SDS011;68864;44.972;19.612;2023-09-18T04:00:04;14.93;;;7.95;;
79414;SDS011;68864;44.972;19.612;2023-09-18T04:02:32;12.02;;;7.43;;
79414;SDS011;68864;44.972;19.612;2023-09-18T04:04:59;14.57;;;10.23;;
79414;SDS011;68864;44.972;19.612;2023-09-18T04:07:26;17.60;;;12.13;;
79414;SDS011;68864;44.972;19.612;2023-09-18T04:09:52;15.02;;;8.27;;
79414;SDS011;68864;44.972;19.612;2023-09-18T04:12:19;14.43;;;11.05;;
79414;SDS011;68864;44.972;19.612;2023-09-18T04:14:47;12.45;;;7.10;;
79414;SDS011;68864;44.972;19.612;2023-09-18T04:17:15;17.17;;;7.40;;
79414;SDS011;68864;44.972;19.612;2023-09-18T04:19:41;15.68;;;9.90;;
79414;SDS011;68864;44.972;19.612;2023-09-18T04:22:09;17.17;;;8.40;;
79414;SDS011;68864;44.972;19.612;2023-09-18T04:24:35;20.02;;;8.00;;
79414;SDS011;68864;44.972;19.612;2023-09-18T04:27:02;12.70;;;8.88;;
79414;SDS011;68864;44.972;19.612;2023-09-18T04:29:29;19.80;;;12.07;;
79414;SDS011;68864;44.972;19.612;2023-09-18T04:31:58;17.10;;;9.95;;
79414;SDS011;68864;44.972;19.612;2023-09-18T04:34:24;22.63;;;8.63;;
79414;SDS011;68864;44.972;19.612;2023-09-18T04:36:51;17.98;;;9.75;;
79414;SDS011;68864;44.972;19.612;2023-09-18T04:39:18;19.25;;;12.05;;
79414;SDS011;68864;44.972;19.612;2023-09-18T04:41:46;15.63;;;9.77;;
79414;SDS011;68864;44.972;19.612;2023-09-18T04:44:13;20.75;;;8.40;;
79414;SDS011;68864;44.972;19.612;2023-09-18T04:46:39;20.95;;;10.32;;
79414;SDS011;68864;44.972;19.612;2023-09-18T04:49:09;20.77;;;8.40;;
79414;SDS011;68864;44.972;19.612;2023-09-18T04:51:37;20.85;;;8.15;;
79414;SDS011;68864;44.972;19.612;2023-09-18T04:56:30;19.17;;;9.20;;
79414;SDS011;68864;44.972;19.612;2023-09-18T04:58:57;16.40;;;6.38;;
79414;SDS011;68864;44.972;19.612;2023-09-18T05:01:24;14.75;;;7.35;;
79414;SDS011;68864;44.972;19.612;2023-09-18T05:03:52;12.75;;;7.38;;
79414;SDS011;68864;44.972;19.612;2023-09-18T05:06:20;12.25;;;6.68;;
79414;SDS011;68864;44.972;19.612;2023-09-18T05:08:47;11.63;;;7.47;;
79414;SDS011;68864;44.972;19.612;2023-09-18T05:11:13;15.95;;;11.05;;
79414;SDS011;68864;44.972;19.612;2023-09-18T05:13:41;16.65;;;9.73;;
79414;SDS011;68864;44.972;19.612;2023-09-18T05:16:08;11.82;;;6.97;;
79414;SDS011;68864;44.972;19.612;2023-09-18T05:18:35;14.80;;;10.63;;
79414;SDS011;68864;44.972;19.612;2023-09-18T05:21:03;16.42;;;7.03;;
79414;SDS011;68864;44.972;19.612;2023-09-18T05:23:31;13.43;;;7.28;;
79414;SDS011;68864;44.972;19.612;2023-09-18T05:25:59;16.40;;;10.55;;
79414;SDS011;68864;44.972;19.612;2023-09-18T05:30:52;13.52;;;6.75;;
79414;SDS011;68864;44.972;19.612;2023-09-18T05:33:20;14.43;;;7.63;;
79414;SDS011;68864;44.972;19.612;2023-09-18T05:35:46;17.02;;;7.03;;
79414;SDS011;68864;44.972;19.612;2023-09-18T05:38:14;11.32;;;7.50;;
79414;SDS011;68864;44.972;19.612;2023-09-18T05:40:44;13.32;;;7.63;;
79414;SDS011;68864;44.972;19.612;2023-09-18T05:43:11;12.13;;;6.70;;
79414;SDS011;68864;44.972;19.612;2023-09-18T05:45:38;15.93;;;6.68;;
79414;SDS011;68864;44.972;19.612;2023-09-18T05:48:05;16.13;;;7.28;;
79414;SDS011;68864;44.972;19.612;2023-09-18T05:50:33;17.50;;;11.98;;
79414;SDS011;68864;44.972;19.612;2023-09-18T05:53:01;19.17;;;8.98;;
79414;SDS011;68864;44.972;19.612;2023-09-18T05:55:29;16.98;;;7.95;;
79414;SDS011;68864;44.972;19.612;2023-09-18T06:00:23;23.52;;;9.93;;
79414;SDS011;68864;44.972;19.612;2023-09-18T06:02:51;14.23;;;6.90;;
79414;SDS011;68864;44.972;19.612;2023-09-18T06:07:46;12.75;;;9.75;;
79414;SDS011;68864;44.972;19.612;2023-09-18T06:10:13;13.40;;;7.05;;
79414;SDS011;68864;44.972;19.612;2023-09-18T06:12:40;12.40;;;6.65;;
79414;SDS011;68864;44.972;19.612;2023-09-18T06:15:09;15.10;;;6.60;;
79414;SDS011;68864;44.972;19.612;2023-09-18T06:17:37;17.05;;;7.57;;
79414;SDS011;68864;44.972;19.612;2023-09-18T06:20:04;12.65;;;7.00;;
79414;SDS011;68864;44.972;19.612;2023-09-18T06:22:35;12.48;;;8.13;;
79414;SDS011;68864;44.972;19.612;2023-09-18T06:25:03;13.07;;;10.05;;
79414;SDS011;68864;44.972;19.612;2023-09-18T06:27:30;10.70;;;6.60;;
79414;SDS011;68864;44.972;19.612;2023-09-18T06:29:57;17.02;;;6.80;;
79414;SDS011;68864;44.972;19.612;2023-09-18T06:34:52;15.65;;;9.90;;
79414;SDS011;68864;44.972;19.612;2023-09-18T06:37:19;11.75;;;9.07;;
79414;SDS011;68864;44.972;19.612;2023-09-18T06:39:46;14.30;;;8.50;;
79414;SDS011;68864;44.972;19.612;2023-09-18T06:42:13;16.90;;;6.80;;
79414;SDS011;68864;44.972;19.612;2023-09-18T06:44:39;15.43;;;7.20;;
79414;SDS011;68864;44.972;19.612;2023-09-18T06:47:06;11.43;;;7.45;;
79414;SDS011;68864;44.972;19.612;2023-09-18T06:49:34;11.32;;;6.75;;
79414;SDS011;68864;44.972;19.612;2023-09-18T06:52:02;15.40;;;10.70;;
79414;SDS011;68864;44.972;19.612;2023-09-18T06:54:30;12.80;;;9.50;;
79414;SDS011;68864;44.972;19.612;2023-09-18T06:56:56;13.25;;;7.35;;
79414;SDS011;68864;44.972;19.612;2023-09-18T06:59:23;14.43;;;7.75;;
79414;SDS011;68864;44.972;19.612;2023-09-18T07:01:50;15.13;;;6.88;;
79414;SDS011;68864;44.972;19.612;2023-09-18T07:04:17;13.93;;;11.35;;
79414;SDS011;68864;44.972;19.612;2023-09-18T07:06:45;17.92;;;10.75;;
79414;SDS011;68864;44.972;19.612;2023-09-18T07:09:12;13.80;;;7.95;;
79414;SDS011;68864;44.972;19.612;2023-09-18T07:11:39;12.60;;;6.68;;
79414;SDS011;68864;44.972;19.612;2023-09-18T07:16:33;17.60;;;12.40;;
79414;SDS011;68864;44.972;19.612;2023-09-18T07:19:00;16.80;;;8.35;;
79414;SDS011;68864;44.972;19.612;2023-09-18T07:21:29;19.67;;;10.27;;
79414;SDS011;68864;44.972;19.612;2023-09-18T07:23:57;12.80;;;7.80;;
79414;SDS011;68864;44.972;19.612;2023-09-18T07:26:24;11.77;;;7.38;;
79414;SDS011;68864;44.972;19.612;2023-09-18T07:31:17;13.65;;;7.38;;
79414;SDS011;68864;44.972;19.612;2023-09-18T07:36:11;13.95;;;7.57;;
79414;SDS011;68864;44.972;19.612;2023-09-18T07:38:40;19.25;;;9.82;;
79414;SDS011;68864;44.972;19.612;2023-09-18T07:41:09;16.58;;;9.23;;
79414;SDS011;68864;44.972;19.612;2023-09-18T07:43:36;13.32;;;9.63;;
79414;SDS011;68864;44.972;19.612;2023-09-18T07:46:04;12.63;;;6.78;;
79414;SDS011;68864;44.972;19.612;2023-09-18T07:50:57;9.60;;;6.40;;
79414;SDS011;68864;44.972;19.612;2023-09-18T07:55:55;12.48;;;5.50;;
79414;SDS011;68864;44.972;19.612;2023-09-18T07:58:23;12.63;;;7.20;;
79414;SDS011;68864;44.972;19.612;2023-09-18T08:00:52;9.23;;;4.57;;
79414;SDS011;68864;44.972;19.612;2023-09-18T08:03:19;12.40;;;6.18;;
79414;SDS011;68864;44.972;19.612;2023-09-18T08:05:49;9.98;;;4.78;;
79414;SDS011;68864;44.972;19.612;2023-09-18T08:08:16;10.57;;;5.50;;
79414;SDS011;68864;44.972;19.612;2023-09-18T08:10:42;9.60;;;5.75;;
79414;SDS011;68864;44.972;19.612;2023-09-18T08:13:09;13.10;;;5.82;;
79414;SDS011;68864;44.972;19.612;2023-09-18T08:18:04;7.05;;;5.07;;
79414;SDS011;68864;44.972;19.612;2023-09-18T08:20:31;9.25;;;5.65;;
79414;SDS011;68864;44.972;19.612;2023-09-18T08:23:00;11.07;;;5.90;;
79414;SDS011;68864;44.972;19.612;2023-09-18T08:25:28;9.95;;;6.85;;
79414;SDS011;68864;44.972;19.612;2023-09-18T08:27:56;12.10;;;5.68;;
79414;SDS011;68864;44.972;19.612;2023-09-18T08:30:22;10.38;;;4.75;;
79414;SDS011;68864;44.972;19.612;2023-09-18T08:32:51;9.75;;;5.18;;
79414;SDS011;68864;44.972;19.612;2023-09-18T08:35:17;8.07;;;5.00;;
79414;SDS011;68864;44.972;19.612;2023-09-18T08:37:45;10.73;;;5.80;;
79414;SDS011;68864;44.972;19.612;2023-09-18T08:40:12;8.10;;;5.32;;
79414;SDS011;68864;44.972;19.612;2023-09-18T08:42:40;10.15;;;5.45;;
79414;SDS011;68864;44.972;19.612;2023-09-18T08:45:12;10.02;;;5.18;;
79414;SDS011;68864;44.972;19.612;2023-09-18T08:47:45;8.88;;;5.28;;
79414;SDS011;68864;44.972;19.612;2023-09-18T08:50:14;8.85;;;5.25;;
79414;SDS011;68864;44.972;19.612;2023-09-18T08:52:41;11.52;;;5.78;;
79414;SDS011;68864;44.972;19.612;2023-09-18T08:55:09;9.38;;;5.28;;
79414;SDS011;68864;44.972;19.612;2023-09-18T08:57:38;11.13;;;5.20;;
79414;SDS011;68864;44.972;19.612;2023-09-18T09:00:08;9.90;;;4.38;;
79414;SDS011;68864;44.972;19.612;2023-09-18T09:02:41;9.93;;;5.20;;
79414;SDS011;68864;44.972;19.612;2023-09-18T09:05:08;10.80;;;5.22;;
79414;SDS011;68864;44.972;19.612;2023-09-18T09:07:36;8.15;;;5.00;;
79414;SDS011;68864;44.972;19.612;2023-09-18T09:10:03;10.90;;;5.20;;
79414;SDS011;68864;44.972;19.612;2023-09-18T09:12:46;10.23;;;7.72;;
79414;SDS011;68864;44.972;19.612;2023-09-18T09:15:14;11.27;;;9.38;;
79414;SDS011;68864;44.972;19.612;2023-09-18T09:17:42;10.32;;;7.88;;
79414;SDS011;68864;44.972;19.612;2023-09-18T09:20:09;11.15;;;7.40;;
79414;SDS011;68864;44.972;19.612;2023-09-18T09:22:38;10.40;;;4.07;;
79414;SDS011;68864;44.972;19.612;2023-09-18T09:25:21;8.55;;;6.25;;
79414;SDS011;68864;44.972;19.612;2023-09-18T09:27:49;6.88;;;6.07;;
79414;SDS011;68864;44.972;19.612;2023-09-18T09:30:18;7.78;;;4.50;;
79414;SDS011;68864;44.972;19.612;2023-09-18T09:32:47;10.15;;;4.68;;
79414;SDS011;68864;44.972;19.612;2023-09-18T09:35:18;7.13;;;4.30;;
79414;SDS011;68864;44.972;19.612;2023-09-18T09:37:51;6.35;;;4.00;;
79414;SDS011;68864;44.972;19.612;2023-09-18T09:40:21;6.85;;;4.68;;
79414;SDS011;68864;44.972;19.612;2023-09-18T09:42:48;8.32;;;4.90;;
79414;SDS011;68864;44.972;19.612;2023-09-18T09:45:19;6.78;;;3.45;;
79414;SDS011;68864;44.972;19.612;2023-09-18T09:47:46;12.43;;;5.20;;
79414;SDS011;68864;44.972;19.612;2023-09-18T09:50:13;7.10;;;4.43;;
79414;SDS011;68864;44.972;19.612;2023-09-18T09:52:44;6.20;;;5.50;;
79414;SDS011;68864;44.972;19.612;2023-09-18T09:55:25;5.85;;;4.18;;
79414;SDS011;68864;44.972;19.612;2023-09-18T09:57:54;7.70;;;3.30;;
79414;SDS011;68864;44.972;19.612;2023-09-18T10:00:25;8.13;;;4.30;;
79414;SDS011;68864;44.972;19.612;2023-09-18T10:02:57;10.63;;;5.65;;
79414;SDS011;68864;44.972;19.612;2023-09-18T10:05:26;6.90;;;4.13;;
79414;SDS011;68864;44.972;19.612;2023-09-18T10:08:00;9.18;;;4.45;;
79414;SDS011;68864;44.972;19.612;2023-09-18T10:10:32;6.35;;;4.20;;
79414;SDS011;68864;44.972;19.612;2023-09-18T10:13:03;7.68;;;4.65;;
79414;SDS011;68864;44.972;19.612;2023-09-18T10:15:36;8.38;;;4.88;;
79414;SDS011;68864;44.972;19.612;2023-09-18T10:18:05;6.65;;;4.57;;
79414;SDS011;68864;44.972;19.612;2023-09-18T10:20:40;7.63;;;4.32;;
79414;SDS011;68864;44.972;19.612;2023-09-18T10:23:15;7.28;;;3.83;;
79414;SDS011;68864;44.972;19.612;2023-09-18T10:25:52;5.95;;;4.10;;
79414;SDS011;68864;44.972;19.612;2023-09-18T10:28:23;6.88;;;3.67;;
79414;SDS011;68864;44.972;19.612;2023-09-18T10:30:51;9.02;;;5.43;;
79414;SDS011;68864;44.972;19.612;2023-09-18T10:33:21;11.73;;;4.95;;
79414;SDS011;68864;44.972;19.612;2023-09-18T10:35:48;6.93;;;4.53;;
79414;SDS011;68864;44.972;19.612;2023-09-18T10:38:15;8.25;;;5.03;;
79414;SDS011;68864;44.972;19.612;2023-09-18T10:40:43;8.77;;;4.82;;
79414;SDS011;68864;44.972;19.612;2023-09-18T10:43:11;9.38;;;4.95;;
79414;SDS011;68864;44.972;19.612;2023-09-18T10:45:42;9.88;;;5.15;;
79414;SDS011;68864;44.972;19.612;2023-09-18T10:48:10;9.60;;;4.90;;
79414;SDS011;68864;44.972;19.612;2023-09-18T10:50:39;11.02;;;5.63;;
79414;SDS011;68864;44.972;19.612;2023-09-18T10:53:08;9.73;;;5.13;;
79414;SDS011;68864;44.972;19.612;2023-09-18T10:55:35;10.07;;;8.77;;
79414;SDS011;68864;44.972;19.612;2023-09-18T10:58:03;10.38;;;5.15;;
79414;SDS011;68864;44.972;19.612;2023-09-18T11:00:32;7.45;;;4.35;;
79414;SDS011;68864;44.972;19.612;2023-09-18T11:03:11;9.40;;;5.15;;
79414;SDS011;68864;44.972;19.612;2023-09-18T11:05:43;9.35;;;5.35;;
79414;SDS011;68864;44.972;19.612;2023-09-18T11:08:25;8.75;;;5.43;;
79414;SDS011;68864;44.972;19.612;2023-09-18T11:10:57;9.45;;;5.30;;
79414;SDS011;68864;44.972;19.612;2023-09-18T11:13:35;12.25;;;8.13;;
79414;SDS011;68864;44.972;19.612;2023-09-18T11:18:42;12.02;;;5.40;;
79414;SDS011;68864;44.972;19.612;2023-09-18T11:21:09;14.40;;;6.57;;
79414;SDS011;68864;44.972;19.612;2023-09-18T11:23:38;11.10;;;5.13;;
79414;SDS011;68864;44.972;19.612;2023-09-18T11:26:08;7.93;;;5.50;;
79414;SDS011;68864;44.972;19.612;2023-09-18T11:28:36;10.45;;;5.82;;
79414;SDS011;68864;44.972;19.612;2023-09-18T11:31:05;9.20;;;6.13;;
79414;SDS011;68864;44.972;19.612;2023-09-18T11:33:33;11.93;;;5.78;;
79414;SDS011;68864;44.972;19.612;2023-09-18T11:36:06;10.15;;;7.40;;
79414;SDS011;68864;44.972;19.612;2023-09-18T11:38:50;10.45;;;5.53;;
79414;SDS011;68864;44.972;19.612;2023-09-18T11:41:22;13.38;;;5.25;;
79414;SDS011;68864;44.972;19.612;2023-09-18T11:43:51;7.60;;;5.05;;
79414;SDS011;68864;44.972;19.612;2023-09-18T11:46:19;9.20;;;4.93;;
79414;SDS011;68864;44.972;19.612;2023-09-18T11:48:47;12.48;;;9.13;;
79414;SDS011;68864;44.972;19.612;2023-09-18T11:51:22;14.48;;;5.15;;
79414;SDS011;68864;44.972;19.612;2023-09-18T11:53:51;10.68;;;5.60;;
79414;SDS011;68864;44.972;19.612;2023-09-18T11:56:21;13.45;;;7.43;;
79414;SDS011;68864;44.972;19.612;2023-09-18T11:58:48;7.13;;;4.68;;
79414;SDS011;68864;44.972;19.612;2023-09-18T12:01:15;8.68;;;5.18;;
79414;SDS011;68864;44.972;19.612;2023-09-18T12:03:46;10.75;;;5.53;;
79414;SDS011;68864;44.972;19.612;2023-09-18T12:06:18;9.05;;;4.95;;
79414;SDS011;68864;44.972;19.612;2023-09-18T12:08:46;10.70;;;5.22;;
79414;SDS011;68864;44.972;19.612;2023-09-18T12:11:16;11.90;;;8.75;;
79414;SDS011;68864;44.972;19.612;2023-09-18T12:13:44;7.20;;;5.50;;
79414;SDS011;68864;44.972;19.612;2023-09-18T12:16:12;7.20;;;4.63;;
79414;SDS011;68864;44.972;19.612;2023-09-18T12:18:45;8.35;;;4.65;;
79414;SDS011;68864;44.972;19.612;2023-09-18T12:21:13;10.55;;;5.32;;
79414;SDS011;68864;44.972;19.612;2023-09-18T12:23:44;8.52;;;7.20;;
79414;SDS011;68864;44.972;19.612;2023-09-18T12:26:12;12.43;;;4.97;;
79414;SDS011;68864;44.972;19.612;2023-09-18T12:28:41;9.65;;;4.45;;
79414;SDS011;68864;44.972;19.612;2023-09-18T12:31:10;10.50;;;7.10;;
79414;SDS011;68864;44.972;19.612;2023-09-18T12:33:37;9.77;;;5.00;;
79414;SDS011;68864;44.972;19.612;2023-09-18T12:36:07;10.77;;;7.32;;
79414;SDS011;68864;44.972;19.612;2023-09-18T12:38:35;7.85;;;3.47;;
79414;SDS011;68864;44.972;19.612;2023-09-18T12:41:02;9.13;;;7.88;;
79414;SDS011;68864;44.972;19.612;2023-09-18T12:43:33;6.57;;;4.10;;
79414;SDS011;68864;44.972;19.612;2023-09-18T12:46:01;12.73;;;4.60;;
79414;SDS011;68864;44.972;19.612;2023-09-18T12:48:29;9.27;;;4.88;;
79414;SDS011;68864;44.972;19.612;2023-09-18T12:51:01;8.70;;;3.55;;
79414;SDS011;68864;44.972;19.612;2023-09-18T12:56:07;7.57;;;3.78;;
79414;SDS011;68864;44.972;19.612;2023-09-18T12:58:35;9.63;;;3.78;;
79414;SDS011;68864;44.972;19.612;2023-09-18T13:01:05;12.05;;;7.03;;
79414;SDS011;68864;44.972;19.612;2023-09-18T13:03:35;7.68;;;4.20;;
79414;SDS011;68864;44.972;19.612;2023-09-18T13:06:08;11.05;;;3.78;;
79414;SDS011;68864;44.972;19.612;2023-09-18T13:08:37;8.27;;;3.30;;
79414;SDS011;68864;44.972;19.612;2023-09-18T13:11:04;9.38;;;3.80;;
79414;SDS011;68864;44.972;19.612;2023-09-18T13:13:31;9.02;;;5.60;;
79414;SDS011;68864;44.972;19.612;2023-09-18T13:15:59;10.20;;;4.40;;
79414;SDS011;68864;44.972;19.612;2023-09-18T13:18:27;10.07;;;4.38;;
79414;SDS011;68864;44.972;19.612;2023-09-18T13:20:54;7.60;;;3.60;;
79414;SDS011;68864;44.972;19.612;2023-09-18T13:23:22;9.30;;;3.25;;
79414;SDS011;68864;44.972;19.612;2023-09-18T13:26:02;5.47;;;3.28;;
79414;SDS011;68864;44.972;19.612;2023-09-18T13:28:30;7.57;;;3.55;;
79414;SDS011;68864;44.972;19.612;2023-09-18T13:30:59;9.25;;;3.65;;
79414;SDS011;68864;44.972;19.612;2023-09-18T13:33:26;7.65;;;3.13;;
79414;SDS011;68864;44.972;19.612;2023-09-18T13:35:53;8.32;;;2.80;;
79414;SDS011;68864;44.972;19.612;2023-09-18T13:38:21;8.32;;;3.55;;
79414;SDS011;68864;44.972;19.612;2023-09-18T13:40:48;6.95;;;2.88;;
79414;SDS011;68864;44.972;19.612;2023-09-18T13:43:17;7.65;;;2.00;;
79414;SDS011;68864;44.972;19.612;2023-09-18T13:45:47;6.28;;;2.35;;
79414;SDS011;68864;44.972;19.612;2023-09-18T13:48:16;9.82;;;2.35;;
79414;SDS011;68864;44.972;19.612;2023-09-18T13:50:43;8.05;;;3.45;;
79414;SDS011;68864;44.972;19.612;2023-09-18T13:53:10;6.57;;;3.75;;
79414;SDS011;68864;44.972;19.612;2023-09-18T13:55:37;7.07;;;3.40;;
79414;SDS011;68864;44.972;19.612;2023-09-18T13:58:04;10.52;;;3.67;;
79414;SDS011;68864;44.972;19.612;2023-09-18T14:00:32;8.00;;;3.83;;
79414;SDS011;68864;44.972;19.612;2023-09-18T14:02:59;9.75;;;3.05;;
79414;SDS011;68864;44.972;19.612;2023-09-18T14:05:28;11.88;;;2.42;;
79414;SDS011;68864;44.972;19.612;2023-09-18T14:07:55;8.10;;;2.67;;
79414;SDS011;68864;44.972;19.612;2023-09-18T14:10:25;11.02;;;3.67;;
79414;SDS011;68864;44.972;19.612;2023-09-18T14:12:52;7.28;;;2.85;;
79414;SDS011;68864;44.972;19.612;2023-09-18T14:15:19;9.10;;;3.08;;
79414;SDS011;68864;44.972;19.612;2023-09-18T14:17:47;8.60;;;3.28;;
79414;SDS011;68864;44.972;19.612;2023-09-18T14:20:14;9.63;;;3.47;;
79414;SDS011;68864;44.972;19.612;2023-09-18T14:22:43;8.20;;;3.10;;
79414;SDS011;68864;44.972;19.612;2023-09-18T14:25:11;8.93;;;3.58;;
79414;SDS011;68864;44.972;19.612;2023-09-18T14:27:39;10.85;;;3.90;;
79414;SDS011;68864;44.972;19.612;2023-09-18T14:30:06;9.13;;;4.00;;
79414;SDS011;68864;44.972;19.612;2023-09-18T14:32:34;7.47;;;3.28;;
79414;SDS011;68864;44.972;19.612;2023-09-18T14:35:03;14.40;;;4.95;;
79414;SDS011;68864;44.972;19.612;2023-09-18T14:37:33;9.23;;;3.85;;
79414;SDS011;68864;44.972;19.612;2023-09-18T14:40:01;7.50;;;3.10;;
79414;SDS011;68864;44.972;19.612;2023-09-18T14:42:28;11.50;;;4.78;;
79414;SDS011;68864;44.972;19.612;2023-09-18T14:44:55;11.32;;;5.57;;
79414;SDS011;68864;44.972;19.612;2023-09-18T14:47:22;9.50;;;4.57;;
79414;SDS011;68864;44.972;19.612;2023-09-18T14:49:49;10.55;;;3.88;;
79414;SDS011;68864;44.972;19.612;2023-09-18T14:52:17;9.52;;;4.13;;
79414;SDS011;68864;44.972;19.612;2023-09-18T14:54:46;8.35;;;3.17;;
79414;SDS011;68864;44.972;19.612;2023-09-18T14:57:13;8.20;;;4.13;;
79414;SDS011;68864;44.972;19.612;2023-09-18T14:59:40;8.80;;;4.90;;
79414;SDS011;68864;44.972;19.612;2023-09-18T15:02:12;11.18;;;5.13;;
79414;SDS011;68864;44.972;19.612;2023-09-18T15:04:41;9.40;;;4.25;;
79414;SDS011;68864;44.972;19.612;2023-09-18T15:07:09;8.45;;;4.80;;
79414;SDS011;68864;44.972;19.612;2023-09-18T15:09:39;9.48;;;4.30;;
79414;SDS011;68864;44.972;19.612;2023-09-18T15:12:07;13.93;;;4.78;;
79414;SDS011;68864;44.972;19.612;2023-09-18T15:14:36;7.85;;;4.03;;
79414;SDS011;68864;44.972;19.612;2023-09-18T15:17:03;11.15;;;4.30;;
79414;SDS011;68864;44.972;19.612;2023-09-18T15:19:33;10.18;;;4.10;;
79414;SDS011;68864;44.972;19.612;2023-09-18T15:21:59;11.07;;;4.80;;
79414;SDS011;68864;44.972;19.612;2023-09-18T15:24:28;15.73;;;4.78;;